createdAt,value
2022-08-19T00:02:25.411Z,3.13
2022-08-19T00:05:27.419Z,3.42
2022-08-19T00:08:29.442Z,2.90
2022-08-19T00:11:31.652Z,2.90
2022-08-19T00:14:33.592Z,3.33
2022-08-19T00:17:35.597Z,3.67
2022-08-19T00:20:43.900Z,4.38
2022-08-19T00:23:46.693Z,3.35
2022-08-19T00:26:48.726Z,4.38
2022-08-19T00:29:52.324Z,3.80
2022-08-19T00:32:57.708Z,4.50
2022-08-19T00:36:05.756Z,4.00
2022-08-19T00:39:08.049Z,4.22
2022-08-19T00:42:09.965Z,3.90
2022-08-19T00:45:18.421Z,3.67
2022-08-19T00:48:21.793Z,4.00
2022-08-19T00:51:24.528Z,4.10
2022-08-19T00:54:31.292Z,4.57
2022-08-19T00:57:43.721Z,4.13
2022-08-19T01:00:46.881Z,4.22
2022-08-19T01:03:57.591Z,4.38
2022-08-19T01:07:03.075Z,4.32
2022-08-19T01:10:07.715Z,4.75
2022-08-19T01:13:10.355Z,5.10
2022-08-19T01:16:12.570Z,4.45
2022-08-19T01:19:43.831Z,3.97
2022-08-19T01:22:53.935Z,4.50
2022-08-19T01:25:58.164Z,4.90
2022-08-19T01:29:02.256Z,4.65
2022-08-19T01:35:31.253Z,3.95
2022-08-19T01:38:37.698Z,4.53
2022-08-19T01:41:47.466Z,4.70
2022-08-19T01:44:50.078Z,4.75
2022-08-19T01:48:01.784Z,5.25
2022-08-19T01:51:05.048Z,4.75
2022-08-19T01:54:08.281Z,3.92
2022-08-19T01:57:13.970Z,4.25
2022-08-19T02:00:18.541Z,5.00
2022-08-19T02:03:24.037Z,4.35
2022-08-19T02:06:26.874Z,4.75
2022-08-19T02:09:32.738Z,4.25
2022-08-19T02:12:38.312Z,4.32
2022-08-19T02:15:40.321Z,3.90
2022-08-19T02:18:42.688Z,4.63
2022-08-19T02:21:44.774Z,4.40
2022-08-19T02:24:49.555Z,4.80
2022-08-19T02:27:51.509Z,4.03
2022-08-19T02:30:53.302Z,4.47
2022-08-19T02:33:57.002Z,4.60
2022-08-19T02:37:03.121Z,4.03
2022-08-19T02:40:12.370Z,4.30
2022-08-19T02:43:14.874Z,4.28
2022-08-19T02:46:23.447Z,4.95
2022-08-19T02:49:25.606Z,4.60
2022-08-19T02:52:28.538Z,5.03
2022-08-19T02:55:30.946Z,4.13
2022-08-19T02:58:49.508Z,3.67
2022-08-19T03:01:54.897Z,3.95
2022-08-19T03:04:56.815Z,5.45
2022-08-19T03:08:00.751Z,4.35
2022-08-19T03:11:03.182Z,4.70
2022-08-19T03:14:07.646Z,4.90
2022-08-19T03:17:09.882Z,4.93
2022-08-19T03:20:11.911Z,4.85
2022-08-19T03:23:16.285Z,4.70
2022-08-19T03:26:18.174Z,5.93
2022-08-19T03:29:30.740Z,4.63
2022-08-19T03:32:35.284Z,4.00
2022-08-19T03:35:44.637Z,5.00
2022-08-19T03:38:49.557Z,4.90
2022-08-19T03:42:32.484Z,4.65
2022-08-19T03:45:23.961Z,5.20
2022-08-19T03:48:26.672Z,4.78
2022-08-19T03:51:32.249Z,5.07
2022-08-19T03:54:34.552Z,6.00
2022-08-19T03:57:37.562Z,4.60
2022-08-19T04:00:43.571Z,4.70
2022-08-19T04:03:48.315Z,4.33
2022-08-19T04:06:50.355Z,5.10
2022-08-19T04:09:53.359Z,5.55
2022-08-19T04:12:55.594Z,6.07
2022-08-19T04:15:57.895Z,5.05
2022-08-19T04:19:02.365Z,5.00
2022-08-19T04:22:05.616Z,5.03
2022-08-19T04:25:08.092Z,6.38
2022-08-19T04:28:11.820Z,5.45
2022-08-19T04:31:16.978Z,4.20
2022-08-19T04:34:25.791Z,4.90
2022-08-19T04:37:29.539Z,4.75
2022-08-19T04:41:14.936Z,3.65
2022-08-19T04:44:22.742Z,4.80
2022-08-19T04:47:47.819Z,4.80
2022-08-19T04:50:47.991Z,4.38
2022-08-19T04:53:50.470Z,4.60
2022-08-19T04:56:55.728Z,4.82
2022-08-19T04:59:59.551Z,5.10
2022-08-19T05:03:03.709Z,4.70
2022-08-19T05:06:12.883Z,5.30
2022-08-19T05:09:17.209Z,4.93
2022-08-19T05:12:19.465Z,5.45
2022-08-19T05:15:21.294Z,5.25
2022-08-19T05:18:41.986Z,5.45
2022-08-19T05:22:05.457Z,6.90
2022-08-19T05:25:13.012Z,5.80
2022-08-19T05:28:15.870Z,5.25
2022-08-19T05:31:18.130Z,5.07
2022-08-19T05:34:22.910Z,5.10
2022-08-19T05:37:28.023Z,5.35
2022-08-19T05:40:30.505Z,4.40
2022-08-19T05:43:32.457Z,4.72
2022-08-19T05:46:34.780Z,5.05
2022-08-19T05:49:38.157Z,4.63
2022-08-19T05:52:43.804Z,4.68
2022-08-19T05:55:54.224Z,5.13
2022-08-19T05:59:02.583Z,4.35
2022-08-19T06:02:05.799Z,4.82
2022-08-19T06:05:10.303Z,5.13
2022-08-19T06:08:12.557Z,5.13
2022-08-19T06:11:21.780Z,4.30
2022-08-19T06:14:28.050Z,4.65
2022-08-19T06:17:32.077Z,4.03
2022-08-19T06:20:54.956Z,4.38
2022-08-19T06:23:58.601Z,3.65
2022-08-19T06:27:02.858Z,4.20
2022-08-19T06:30:06.004Z,4.20
2022-08-19T06:33:09.437Z,3.90
2022-08-19T06:36:42.357Z,4.43
2022-08-19T06:39:46.559Z,4.07
2022-08-19T06:42:54.509Z,3.60
2022-08-19T06:46:00.004Z,4.25
2022-08-19T06:49:04.564Z,4.35
2022-08-19T06:52:08.150Z,4.40
2022-08-19T06:55:12.396Z,3.85
2022-08-19T06:58:15.410Z,4.53
2022-08-19T07:01:17.415Z,3.60
2022-08-19T07:04:25.537Z,3.88
2022-08-19T07:07:28.788Z,4.28
2022-08-19T07:10:33.418Z,4.50
2022-08-19T07:13:40.169Z,4.47
2022-08-19T07:16:43.106Z,3.53
2022-08-19T07:19:46.112Z,12.23
2022-08-19T07:22:49.496Z,2.95
2022-08-19T07:25:53.170Z,4.10
2022-08-19T07:28:56.792Z,3.80
2022-08-19T07:32:01.381Z,3.92
2022-08-19T07:35:04.722Z,4.40
2022-08-19T07:38:07.025Z,3.65
2022-08-19T07:41:12.209Z,6.03
2022-08-19T07:44:15.723Z,4.40
2022-08-19T07:47:50.347Z,4.10
2022-08-19T07:50:41.926Z,4.05
2022-08-19T07:56:52.417Z,3.38
2022-08-19T07:59:54.592Z,4.35
2022-08-19T08:02:57.411Z,4.07
2022-08-19T08:06:18.306Z,4.53
2022-08-19T08:09:33.683Z,4.13
2022-08-19T08:12:42.432Z,4.03
2022-08-19T08:15:46.252Z,4.10
2022-08-19T08:18:50.573Z,4.60
2022-08-19T08:21:57.310Z,4.20
2022-08-19T08:25:04.387Z,4.10
2022-08-19T08:28:11.270Z,4.60
2022-08-19T08:31:14.671Z,3.53
2022-08-19T08:34:16.901Z,4.22
2022-08-19T08:37:20.428Z,4.55
2022-08-19T08:40:44.586Z,4.20
2022-08-19T08:43:48.960Z,4.55
2022-08-19T08:46:57.177Z,4.60
2022-08-19T08:50:27.612Z,4.22
2022-08-19T08:53:32.501Z,4.10
2022-08-19T08:56:36.541Z,4.40
2022-08-19T08:59:42.340Z,3.78
2022-08-19T09:02:50.831Z,3.88
2022-08-19T09:06:47.420Z,4.13
2022-08-19T09:09:52.661Z,4.22
2022-08-19T09:13:17.775Z,4.07
2022-08-19T09:16:27.736Z,4.05
2022-08-19T09:19:31.736Z,3.55
2022-08-19T09:22:36.696Z,4.50
2022-08-19T09:25:41.598Z,5.00
2022-08-19T09:28:48.309Z,9.07
2022-08-19T09:31:51.290Z,3.83
2022-08-19T09:34:56.143Z,3.90
2022-08-19T09:38:00.692Z,4.17
2022-08-19T09:41:08.047Z,3.65
2022-08-19T09:44:12.909Z,3.97
2022-08-19T09:47:15.429Z,3.80
2022-08-19T09:50:24.409Z,3.80
2022-08-19T09:53:27.717Z,3.80
2022-08-19T09:56:33.952Z,3.75
2022-08-19T09:59:36.560Z,4.10
2022-08-19T10:02:39.915Z,3.47
2022-08-19T10:05:50.659Z,3.13
2022-08-19T10:08:57.331Z,3.95
2022-08-19T10:12:02.896Z,4.03
2022-08-19T10:15:07.341Z,3.22
2022-08-19T10:18:09.981Z,3.75
2022-08-19T10:21:17.135Z,3.10
2022-08-19T10:24:21.344Z,3.40
2022-08-19T10:27:23.901Z,2.90
2022-08-19T10:30:29.055Z,3.92
2022-08-19T10:33:38.895Z,3.00
2022-08-19T10:36:56.565Z,3.45
2022-08-19T10:40:04.702Z,3.05
2022-08-19T10:43:06.667Z,3.08
2022-08-19T10:46:14.062Z,3.03
2022-08-19T10:49:20.310Z,3.00
2022-08-19T10:52:34.369Z,2.75
2022-08-19T10:55:54.931Z,3.20
2022-08-19T10:58:58.167Z,3.08
2022-08-19T11:02:02.384Z,3.35
2022-08-19T11:05:12.675Z,3.20
2022-08-19T11:08:22.516Z,3.08
2022-08-19T11:11:25.419Z,2.80
2022-08-19T11:14:28.394Z,2.67
2022-08-19T11:17:34.577Z,2.90
2022-08-19T11:20:36.802Z,2.92
2022-08-19T11:23:38.854Z,2.97
2022-08-19T11:26:42.137Z,2.83
2022-08-19T11:29:44.170Z,3.20
2022-08-19T11:32:49.359Z,2.97
2022-08-19T11:35:51.737Z,3.20
2022-08-19T11:38:55.633Z,2.47
2022-08-19T11:41:59.724Z,2.80
2022-08-19T11:45:02.119Z,3.13
2022-08-19T11:48:04.383Z,2.63
2022-08-19T11:51:18.670Z,3.13
2022-08-19T11:54:20.571Z,2.70
2022-08-19T11:57:22.685Z,2.83
2022-08-19T12:00:24.714Z,2.45
2022-08-19T12:03:27.286Z,2.60
2022-08-19T12:06:32.916Z,2.42
2022-08-19T12:09:37.764Z,3.67
2022-08-19T12:12:45.991Z,3.15
2022-08-19T12:15:56.040Z,2.33
2022-08-19T12:19:00.244Z,2.97
2022-08-19T12:22:04.522Z,2.57
2022-08-19T12:25:07.220Z,2.92
2022-08-19T12:28:09.074Z,3.30
2022-08-19T12:31:15.039Z,2.30
2022-08-19T12:34:17.279Z,2.35
2022-08-19T12:37:21.669Z,2.45
2022-08-19T12:40:23.997Z,2.70
2022-08-19T12:43:30.578Z,2.83
2022-08-19T12:46:35.553Z,2.60
2022-08-19T12:49:53.573Z,2.42
2022-08-19T12:52:58.906Z,2.92
2022-08-19T12:56:01.245Z,2.72
2022-08-19T12:59:04.359Z,2.67
2022-08-19T13:02:07.979Z,3.22
2022-08-19T13:05:12.833Z,2.58
2022-08-19T13:08:15.515Z,3.05
2022-08-19T13:11:24.554Z,2.67
2022-08-19T13:14:27.793Z,2.40
2022-08-19T13:17:29.857Z,2.55
2022-08-19T13:20:32.037Z,3.08
2022-08-19T13:23:35.586Z,2.85
2022-08-19T13:26:37.520Z,2.78
2022-08-19T13:30:00.215Z,2.35
2022-08-19T13:33:12.492Z,2.60
2022-08-19T13:36:14.676Z,2.72
2022-08-19T13:39:17.197Z,2.50
2022-08-19T13:42:20.538Z,2.17
2022-08-19T13:45:25.489Z,2.97
2022-08-19T13:48:30.179Z,2.83
2022-08-19T13:51:32.205Z,3.50
2022-08-19T13:54:45.034Z,2.60
2022-08-19T13:57:47.366Z,2.80
2022-08-19T14:00:49.721Z,2.70
2022-08-19T14:03:52.156Z,3.60
2022-08-19T14:06:54.328Z,4.05
2022-08-19T14:09:56.409Z,5.05
2022-08-19T14:13:00.349Z,4.90
2022-08-19T14:16:03.294Z,4.18
2022-08-19T14:19:05.631Z,5.15
2022-08-19T14:22:07.766Z,3.78
2022-08-19T14:25:12.842Z,3.08
2022-08-19T14:28:14.977Z,3.85
2022-08-19T14:31:20.308Z,4.68
2022-08-19T14:34:23.749Z,4.43
2022-08-19T14:37:26.542Z,4.20
2022-08-19T14:40:31.339Z,4.18
2022-08-19T14:43:33.308Z,5.18
2022-08-19T14:46:35.426Z,5.10
2022-08-19T14:49:41.174Z,5.10
2022-08-19T14:52:48.038Z,4.68
2022-08-19T14:55:50.360Z,3.90
2022-08-19T14:58:55.362Z,3.97
2022-08-19T15:01:57.630Z,4.37
2022-08-19T15:04:59.886Z,3.88
2022-08-19T15:08:05.404Z,4.55
2022-08-19T15:11:12.975Z,4.85
2022-08-19T15:14:17.789Z,4.70
2022-08-19T15:17:20.726Z,4.13
2022-08-19T15:20:23.968Z,5.05
2022-08-19T15:23:26.859Z,3.97
2022-08-19T15:26:33.412Z,5.38
2022-08-19T15:29:39.846Z,5.00
2022-08-19T15:35:48.479Z,3.92
2022-08-19T15:38:53.581Z,4.05
2022-08-19T15:41:56.013Z,4.18
2022-08-19T15:45:00.364Z,4.63
2022-08-19T15:48:05.491Z,4.97
2022-08-19T15:51:07.478Z,2.95
2022-08-19T15:54:13.223Z,3.05
2022-08-19T15:57:27.431Z,3.45
2022-08-19T16:00:52.689Z,3.25
2022-08-19T16:04:16.173Z,2.35
2022-08-19T16:07:23.471Z,3.47
2022-08-19T16:10:27.973Z,3.50
2022-08-19T16:13:30.288Z,2.75
2022-08-19T16:16:35.265Z,4.22
2022-08-19T16:19:38.262Z,4.30
2022-08-19T16:22:41.735Z,3.70
2022-08-19T16:25:44.093Z,3.45
2022-08-19T16:28:50.341Z,4.10
2022-08-19T16:31:54.843Z,3.25
2022-08-19T16:35:04.615Z,3.35
2022-08-19T16:38:10.271Z,3.65
2022-08-19T16:41:14.899Z,3.00
2022-08-19T16:44:19.961Z,2.55
2022-08-19T16:47:25.437Z,2.90
2022-08-19T16:50:47.733Z,3.40
2022-08-19T16:53:53.128Z,2.40
2022-08-19T16:56:56.456Z,2.30
2022-08-19T16:59:58.805Z,2.38
2022-08-19T17:03:13.098Z,2.60
2022-08-19T17:06:21.348Z,1.95
2022-08-19T17:09:26.082Z,1.52
2022-08-19T17:12:31.602Z,2.65
2022-08-19T17:15:35.251Z,4.20
2022-08-19T17:18:37.595Z,1.95
2022-08-19T17:21:40.938Z,3.42
2022-08-19T17:24:43.078Z,2.30
2022-08-19T17:27:45.931Z,1.77
2022-08-19T17:30:48.526Z,1.80
2022-08-19T17:33:51.295Z,2.08
2022-08-19T17:36:57.126Z,2.45
2022-08-19T17:40:00.280Z,3.35
2022-08-19T17:43:02.946Z,2.03
2022-08-19T17:46:06.244Z,2.22
2022-08-19T17:49:08.832Z,2.58
2022-08-19T17:52:12.007Z,1.88
2022-08-19T17:55:14.410Z,2.63
2022-08-19T17:58:16.951Z,1.83
2022-08-19T18:01:22.056Z,1.80
2022-08-19T18:04:26.662Z,2.15
2022-08-19T18:07:30.899Z,2.28
2022-08-19T18:10:35.210Z,2.42
2022-08-19T18:13:37.899Z,2.70
2022-08-19T18:16:40.447Z,11.82
2022-08-19T18:19:44.093Z,10.90
2022-08-19T18:22:48.467Z,5.40
2022-08-19T18:25:50.906Z,3.78
2022-08-19T18:28:54.314Z,2.42
2022-08-19T18:31:58.123Z,2.55
2022-08-19T18:35:06.667Z,2.38
2022-08-19T18:38:29.027Z,2.53
2022-08-19T18:41:49.650Z,2.17
2022-08-19T18:45:10.249Z,1.88
2022-08-19T18:48:30.711Z,2.67
2022-08-19T18:51:33.326Z,2.28
2022-08-19T18:54:36.160Z,2.03
2022-08-19T18:57:38.464Z,2.42
2022-08-19T19:00:41.329Z,2.22
2022-08-19T19:03:47.149Z,4.47
2022-08-19T19:06:49.497Z,3.73
2022-08-19T19:09:52.263Z,3.75
2022-08-19T19:12:54.806Z,3.85
2022-08-19T19:15:57.287Z,2.67
2022-08-19T19:19:03.155Z,3.13
2022-08-19T19:22:05.652Z,2.33
2022-08-19T19:25:09.042Z,2.95
2022-08-19T19:28:16.019Z,2.85
2022-08-19T19:31:27.044Z,2.88
2022-08-19T19:34:30.845Z,2.70
2022-08-19T19:37:33.650Z,2.53
2022-08-19T19:40:36.176Z,2.25
2022-08-19T19:43:41.084Z,2.45
2022-08-19T19:46:44.286Z,3.03
2022-08-19T19:53:16.389Z,2.45
2022-08-19T19:56:19.126Z,2.30
2022-08-19T19:59:21.373Z,2.25
2022-08-19T20:02:25.442Z,1.92
2022-08-19T20:05:28.125Z,2.58
2022-08-19T20:08:49.082Z,2.22
2022-08-19T20:11:54.909Z,2.30
2022-08-19T20:14:57.084Z,2.03
2022-08-19T20:18:01.082Z,1.90
2022-08-19T20:21:04.086Z,2.03
2022-08-19T20:24:09.592Z,2.25
2022-08-19T20:27:13.018Z,2.63
2022-08-19T20:30:19.613Z,1.55
2022-08-19T20:33:23.246Z,1.70
2022-08-19T20:36:25.425Z,1.92
2022-08-19T20:39:27.589Z,1.60
2022-08-19T20:42:29.797Z,1.65
2022-08-19T20:45:36.684Z,1.27
2022-08-19T20:48:43.432Z,0.70
2022-08-19T20:51:47.334Z,1.13
2022-08-19T20:54:49.761Z,0.95
2022-08-19T20:57:52.371Z,1.13
2022-08-19T21:00:57.531Z,1.00
2022-08-19T21:03:59.672Z,1.27
2022-08-19T21:07:02.592Z,1.20
2022-08-19T21:10:05.606Z,1.30
2022-08-19T21:13:07.810Z,1.25
2022-08-19T21:16:09.808Z,1.70
2022-08-19T21:19:12.141Z,2.20
2022-08-19T21:22:14.458Z,2.45
2022-08-19T21:25:17.824Z,1.85
2022-08-19T21:28:29.879Z,1.60
2022-08-19T21:31:39.007Z,1.73
2022-08-19T21:34:41.531Z,1.65
2022-08-19T21:37:48.768Z,1.77
2022-08-19T21:40:51.325Z,1.63
2022-08-19T21:43:53.456Z,1.52
2022-08-19T21:46:59.590Z,1.88
2022-08-19T21:50:01.463Z,1.70
2022-08-19T21:53:05.316Z,1.10
2022-08-19T21:56:07.726Z,1.35
2022-08-19T21:59:10.079Z,1.60
2022-08-19T22:02:21.533Z,0.80
2022-08-19T22:05:24.950Z,1.65
2022-08-19T22:08:27.347Z,1.23
2022-08-19T22:11:29.839Z,1.80
2022-08-19T22:14:33.778Z,1.65
2022-08-19T22:17:36.762Z,1.58
2022-08-19T22:20:38.904Z,1.50
2022-08-19T22:23:42.402Z,1.73
2022-08-19T22:26:47.356Z,1.15
2022-08-19T22:29:52.505Z,1.60
2022-08-19T22:33:02.114Z,1.88
2022-08-19T22:36:07.649Z,1.42
2022-08-19T22:42:18.742Z,1.50
2022-08-19T22:45:21.026Z,1.85
2022-08-19T22:48:28.915Z,2.13
2022-08-19T22:51:49.219Z,1.63
2022-08-19T22:54:53.700Z,2.08
2022-08-19T22:57:56.966Z,1.92
2022-08-19T23:00:59.318Z,1.40
2022-08-19T23:04:03.911Z,1.58
2022-08-19T23:07:06.445Z,1.88
2022-08-19T23:10:12.691Z,1.70
2022-08-19T23:13:17.354Z,1.60
2022-08-19T23:16:19.848Z,1.58
2022-08-19T23:19:22.456Z,2.17
2022-08-19T23:22:25.262Z,1.63
2022-08-19T23:25:30.666Z,2.45
2022-08-19T23:28:51.513Z,2.05
2022-08-19T23:31:53.312Z,2.35
2022-08-19T23:34:57.093Z,2.60
2022-08-19T23:38:01.181Z,2.28
2022-08-19T23:41:06.745Z,2.47
2022-08-19T23:44:14.735Z,1.80
2022-08-19T23:47:17.180Z,1.98
2022-08-19T23:50:19.683Z,1.98
2022-08-19T23:53:21.918Z,2.03
2022-08-19T23:56:23.975Z,1.98
2022-08-19T23:59:25.854Z,2.72
